sensor_id;sensor_type;location;lat;lon;timestamp;P1;durP1;ratioP1;P2;durP2;ratioP2
10450;SDS011;5273;51.290;6.918;2023-11-22T00:01:23;14.77;;;9.40;;
10450;SDS011;5273;51.290;6.918;2023-11-22T00:03:51;12.77;;;9.73;;
10450;SDS011;5273;51.290;6.918;2023-11-22T00:06:23;12.90;;;9.37;;
10450;SDS011;5273;51.290;6.918;2023-11-22T00:08:51;11.67;;;8.40;;
10450;SDS011;5273;51.290;6.918;2023-11-22T00:11:18;14.03;;;8.60;;
10450;SDS011;5273;51.290;6.918;2023-11-22T00:13:45;14.07;;;8.77;;
10450;SDS011;5273;51.290;6.918;2023-11-22T00:16:14;14.10;;;9.03;;
10450;SDS011;5273;51.290;6.918;2023-11-22T00:18:41;14.20;;;9.43;;
10450;SDS011;5273;51.290;6.918;2023-11-22T00:21:11;13.37;;;9.50;;
10450;SDS011;5273;51.290;6.918;2023-11-22T00:23:40;14.17;;;9.77;;
10450;SDS011;5273;51.290;6.918;2023-11-22T00:26:09;11.77;;;8.83;;
10450;SDS011;5273;51.290;6.918;2023-11-22T00:28:36;14.27;;;10.17;;
10450;SDS011;5273;51.290;6.918;2023-11-22T00:31:06;18.23;;;10.07;;
10450;SDS011;5273;51.290;6.918;2023-11-22T00:33:33;15.67;;;9.90;;
10450;SDS011;5273;51.290;6.918;2023-11-22T00:36:01;16.97;;;10.40;;
10450;SDS011;5273;51.290;6.918;2023-11-22T00:38:29;13.50;;;9.73;;
10450;SDS011;5273;51.290;6.918;2023-11-22T00:40:56;16.03;;;9.90;;
10450;SDS011;5273;51.290;6.918;2023-11-22T00:43:25;14.80;;;10.40;;
10450;SDS011;5273;51.290;6.918;2023-11-22T00:45:55;16.70;;;10.67;;
10450;SDS011;5273;51.290;6.918;2023-11-22T00:48:23;14.90;;;10.23;;
10450;SDS011;5273;51.290;6.918;2023-11-22T00:50:52;16.27;;;9.50;;
10450;SDS011;5273;51.290;6.918;2023-11-22T00:53:20;11.77;;;8.23;;
10450;SDS011;5273;51.290;6.918;2023-11-22T00:55:49;12.87;;;8.73;;
10450;SDS011;5273;51.290;6.918;2023-11-22T00:58:18;12.00;;;8.10;;
10450;SDS011;5273;51.290;6.918;2023-11-22T01:00:46;11.83;;;8.23;;
10450;SDS011;5273;51.290;6.918;2023-11-22T01:03:16;13.47;;;9.10;;
10450;SDS011;5273;51.290;6.918;2023-11-22T01:05:43;12.40;;;8.60;;
10450;SDS011;5273;51.290;6.918;2023-11-22T01:08:11;14.20;;;8.67;;
10450;SDS011;5273;51.290;6.918;2023-11-22T01:10:39;10.33;;;7.90;;
10450;SDS011;5273;51.290;6.918;2023-11-22T01:13:06;11.70;;;8.30;;
10450;SDS011;5273;51.290;6.918;2023-11-22T01:15:39;14.67;;;8.50;;
10450;SDS011;5273;51.290;6.918;2023-11-22T01:18:07;12.70;;;8.60;;
10450;SDS011;5273;51.290;6.918;2023-11-22T01:20:34;17.80;;;8.67;;
10450;SDS011;5273;51.290;6.918;2023-11-22T01:23:02;13.17;;;8.77;;
10450;SDS011;5273;51.290;6.918;2023-11-22T01:25:30;13.70;;;9.33;;
10450;SDS011;5273;51.290;6.918;2023-11-22T01:27:58;14.13;;;9.30;;
10450;SDS011;5273;51.290;6.918;2023-11-22T01:30:25;12.67;;;9.03;;
10450;SDS011;5273;51.290;6.918;2023-11-22T01:32:53;17.17;;;8.93;;
10450;SDS011;5273;51.290;6.918;2023-11-22T01:35:23;17.97;;;9.87;;
10450;SDS011;5273;51.290;6.918;2023-11-22T01:37:50;14.97;;;8.97;;
10450;SDS011;5273;51.290;6.918;2023-11-22T01:40:18;15.23;;;9.10;;
10450;SDS011;5273;51.290;6.918;2023-11-22T01:42:45;15.83;;;9.03;;
10450;SDS011;5273;51.290;6.918;2023-11-22T01:45:12;14.63;;;9.50;;
10450;SDS011;5273;51.290;6.918;2023-11-22T01:47:40;11.57;;;8.50;;
10450;SDS011;5273;51.290;6.918;2023-11-22T01:50:07;14.60;;;9.53;;
10450;SDS011;5273;51.290;6.918;2023-11-22T01:52:36;14.53;;;9.23;;
10450;SDS011;5273;51.290;6.918;2023-11-22T01:55:05;17.83;;;9.43;;
10450;SDS011;5273;51.290;6.918;2023-11-22T01:57:38;13.60;;;9.17;;
10450;SDS011;5273;51.290;6.918;2023-11-22T02:00:05;14.03;;;9.03;;
10450;SDS011;5273;51.290;6.918;2023-11-22T02:02:33;13.07;;;8.77;;
10450;SDS011;5273;51.290;6.918;2023-11-22T02:05:03;14.53;;;9.43;;
10450;SDS011;5273;51.290;6.918;2023-11-22T02:07:31;13.60;;;9.17;;
10450;SDS011;5273;51.290;6.918;2023-11-22T02:10:05;14.63;;;9.27;;
10450;SDS011;5273;51.290;6.918;2023-11-22T02:12:33;16.00;;;9.03;;
10450;SDS011;5273;51.290;6.918;2023-11-22T02:15:00;15.47;;;9.47;;
10450;SDS011;5273;51.290;6.918;2023-11-22T02:17:28;15.10;;;8.93;;
10450;SDS011;5273;51.290;6.918;2023-11-22T02:19:56;20.07;;;9.47;;
10450;SDS011;5273;51.290;6.918;2023-11-22T02:22:23;14.47;;;8.97;;
10450;SDS011;5273;51.290;6.918;2023-11-22T02:24:51;16.43;;;9.83;;
10450;SDS011;5273;51.290;6.918;2023-11-22T02:27:18;16.07;;;9.80;;
10450;SDS011;5273;51.290;6.918;2023-11-22T02:29:48;13.53;;;9.30;;
10450;SDS011;5273;51.290;6.918;2023-11-22T02:32:15;15.47;;;10.03;;
10450;SDS011;5273;51.290;6.918;2023-11-22T02:34:43;19.07;;;10.50;;
10450;SDS011;5273;51.290;6.918;2023-11-22T02:37:11;17.63;;;10.80;;
10450;SDS011;5273;51.290;6.918;2023-11-22T02:39:45;15.37;;;10.30;;
10450;SDS011;5273;51.290;6.918;2023-11-22T02:42:22;18.73;;;11.17;;
10450;SDS011;5273;51.290;6.918;2023-11-22T02:44:48;18.10;;;10.70;;
10450;SDS011;5273;51.290;6.918;2023-11-22T02:47:15;17.43;;;11.67;;
10450;SDS011;5273;51.290;6.918;2023-11-22T02:49:43;17.33;;;10.73;;
10450;SDS011;5273;51.290;6.918;2023-11-22T02:52:10;22.13;;;11.60;;
10450;SDS011;5273;51.290;6.918;2023-11-22T02:54:42;17.00;;;10.90;;
10450;SDS011;5273;51.290;6.918;2023-11-22T02:57:10;18.60;;;11.57;;
10450;SDS011;5273;51.290;6.918;2023-11-22T02:59:42;20.30;;;11.57;;
10450;SDS011;5273;51.290;6.918;2023-11-22T03:02:09;26.27;;;12.70;;
10450;SDS011;5273;51.290;6.918;2023-11-22T03:04:36;20.30;;;13.03;;
10450;SDS011;5273;51.290;6.918;2023-11-22T03:07:06;25.17;;;12.43;;
10450;SDS011;5273;51.290;6.918;2023-11-22T03:09:40;21.43;;;12.83;;
10450;SDS011;5273;51.290;6.918;2023-11-22T03:12:09;24.57;;;13.27;;
10450;SDS011;5273;51.290;6.918;2023-11-22T03:14:38;22.90;;;13.43;;
10450;SDS011;5273;51.290;6.918;2023-11-22T03:17:06;25.60;;;14.53;;
10450;SDS011;5273;51.290;6.918;2023-11-22T03:19:42;22.13;;;12.87;;
10450;SDS011;5273;51.290;6.918;2023-11-22T03:22:10;22.93;;;13.37;;
10450;SDS011;5273;51.290;6.918;2023-11-22T03:24:37;23.10;;;13.90;;
10450;SDS011;5273;51.290;6.918;2023-11-22T03:27:05;21.87;;;13.53;;
10450;SDS011;5273;51.290;6.918;2023-11-22T03:29:32;25.87;;;14.20;;
10450;SDS011;5273;51.290;6.918;2023-11-22T03:31:59;23.77;;;13.00;;
10450;SDS011;5273;51.290;6.918;2023-11-22T03:34:28;21.43;;;13.50;;
10450;SDS011;5273;51.290;6.918;2023-11-22T03:36:55;22.83;;;13.57;;
10450;SDS011;5273;51.290;6.918;2023-11-22T03:39:22;20.03;;;12.93;;
10450;SDS011;5273;51.290;6.918;2023-11-22T03:41:50;22.77;;;13.40;;
10450;SDS011;5273;51.290;6.918;2023-11-22T03:44:19;22.70;;;13.53;;
10450;SDS011;5273;51.290;6.918;2023-11-22T03:46:46;22.57;;;13.63;;
10450;SDS011;5273;51.290;6.918;2023-11-22T03:49:13;21.93;;;13.17;;
10450;SDS011;5273;51.290;6.918;2023-11-22T03:51:42;19.83;;;11.73;;
10450;SDS011;5273;51.290;6.918;2023-11-22T03:54:09;21.43;;;12.87;;
10450;SDS011;5273;51.290;6.918;2023-11-22T03:56:37;20.27;;;12.93;;
10450;SDS011;5273;51.290;6.918;2023-11-22T03:59:05;20.77;;;12.83;;
10450;SDS011;5273;51.290;6.918;2023-11-22T04:01:32;21.13;;;12.83;;
10450;SDS011;5273;51.290;6.918;2023-11-22T04:03:59;21.67;;;13.50;;
10450;SDS011;5273;51.290;6.918;2023-11-22T04:06:26;23.40;;;13.73;;
10450;SDS011;5273;51.290;6.918;2023-11-22T04:08:55;21.80;;;12.53;;
10450;SDS011;5273;51.290;6.918;2023-11-22T04:11:22;22.33;;;13.47;;
10450;SDS011;5273;51.290;6.918;2023-11-22T04:13:52;25.27;;;13.70;;
10450;SDS011;5273;51.290;6.918;2023-11-22T04:16:19;22.10;;;12.47;;
10450;SDS011;5273;51.290;6.918;2023-11-22T04:18:48;21.23;;;13.17;;
10450;SDS011;5273;51.290;6.918;2023-11-22T04:21:15;22.10;;;12.87;;
10450;SDS011;5273;51.290;6.918;2023-11-22T04:23:42;19.17;;;12.27;;
10450;SDS011;5273;51.290;6.918;2023-11-22T04:26:11;23.40;;;13.10;;
10450;SDS011;5273;51.290;6.918;2023-11-22T04:28:38;23.23;;;13.53;;
10450;SDS011;5273;51.290;6.918;2023-11-22T04:31:08;25.20;;;14.17;;
10450;SDS011;5273;51.290;6.918;2023-11-22T04:33:35;20.97;;;13.00;;
10450;SDS011;5273;51.290;6.918;2023-11-22T04:36:03;21.20;;;12.87;;
10450;SDS011;5273;51.290;6.918;2023-11-22T04:38:30;21.97;;;13.93;;
10450;SDS011;5273;51.290;6.918;2023-11-22T04:40:59;22.40;;;13.20;;
10450;SDS011;5273;51.290;6.918;2023-11-22T04:43:30;21.87;;;12.47;;
10450;SDS011;5273;51.290;6.918;2023-11-22T04:45:59;24.43;;;13.07;;
10450;SDS011;5273;51.290;6.918;2023-11-22T04:48:27;26.67;;;14.33;;
10450;SDS011;5273;51.290;6.918;2023-11-22T04:50:55;21.03;;;12.73;;
10450;SDS011;5273;51.290;6.918;2023-11-22T04:53:22;22.27;;;12.90;;
10450;SDS011;5273;51.290;6.918;2023-11-22T04:55:52;21.57;;;12.30;;
10450;SDS011;5273;51.290;6.918;2023-11-22T04:58:19;22.17;;;12.93;;
10450;SDS011;5273;51.290;6.918;2023-11-22T05:00:48;21.80;;;11.97;;
10450;SDS011;5273;51.290;6.918;2023-11-22T05:03:18;18.80;;;11.87;;
10450;SDS011;5273;51.290;6.918;2023-11-22T05:05:45;18.90;;;11.30;;
10450;SDS011;5273;51.290;6.918;2023-11-22T05:08:15;18.53;;;12.27;;
10450;SDS011;5273;51.290;6.918;2023-11-22T05:10:42;20.43;;;10.97;;
10450;SDS011;5273;51.290;6.918;2023-11-22T05:13:09;19.87;;;11.33;;
10450;SDS011;5273;51.290;6.918;2023-11-22T05:15:37;18.07;;;10.53;;
10450;SDS011;5273;51.290;6.918;2023-11-22T05:18:05;19.93;;;11.57;;
10450;SDS011;5273;51.290;6.918;2023-11-22T05:20:33;19.30;;;11.90;;
10450;SDS011;5273;51.290;6.918;2023-11-22T05:23:00;15.60;;;10.47;;
10450;SDS011;5273;51.290;6.918;2023-11-22T05:25:29;18.93;;;9.93;;
10450;SDS011;5273;51.290;6.918;2023-11-22T05:27:56;14.93;;;9.80;;
10450;SDS011;5273;51.290;6.918;2023-11-22T05:30:24;15.40;;;8.90;;
10450;SDS011;5273;51.290;6.918;2023-11-22T05:32:51;12.53;;;9.17;;
10450;SDS011;5273;51.290;6.918;2023-11-22T05:35:22;15.23;;;9.80;;
10450;SDS011;5273;51.290;6.918;2023-11-22T05:37:51;11.17;;;7.90;;
10450;SDS011;5273;51.290;6.918;2023-11-22T05:40:18;14.20;;;8.43;;
10450;SDS011;5273;51.290;6.918;2023-11-22T05:42:46;14.30;;;8.97;;
10450;SDS011;5273;51.290;6.918;2023-11-22T05:45:13;15.70;;;9.67;;
10450;SDS011;5273;51.290;6.918;2023-11-22T05:47:41;12.90;;;8.73;;
10450;SDS011;5273;51.290;6.918;2023-11-22T05:50:08;15.07;;;9.60;;
10450;SDS011;5273;51.290;6.918;2023-11-22T05:52:37;12.70;;;8.40;;
10450;SDS011;5273;51.290;6.918;2023-11-22T05:55:04;15.77;;;8.90;;
10450;SDS011;5273;51.290;6.918;2023-11-22T05:57:34;14.47;;;8.83;;
10450;SDS011;5273;51.290;6.918;2023-11-22T06:00:01;12.33;;;8.23;;
10450;SDS011;5273;51.290;6.918;2023-11-22T06:02:29;13.37;;;8.47;;
10450;SDS011;5273;51.290;6.918;2023-11-22T06:04:56;14.07;;;9.33;;
10450;SDS011;5273;51.290;6.918;2023-11-22T06:07:23;15.77;;;9.50;;
10450;SDS011;5273;51.290;6.918;2023-11-22T06:09:51;13.30;;;9.00;;
10450;SDS011;5273;51.290;6.918;2023-11-22T06:12:18;13.63;;;8.07;;
10450;SDS011;5273;51.290;6.918;2023-11-22T06:14:47;13.93;;;8.53;;
10450;SDS011;5273;51.290;6.918;2023-11-22T06:17:17;11.20;;;7.77;;
10450;SDS011;5273;51.290;6.918;2023-11-22T06:19:47;15.97;;;8.80;;
10450;SDS011;5273;51.290;6.918;2023-11-22T06:22:16;14.83;;;8.40;;
10450;SDS011;5273;51.290;6.918;2023-11-22T06:24:52;13.03;;;8.10;;
10450;SDS011;5273;51.290;6.918;2023-11-22T06:27:20;16.57;;;9.50;;
10450;SDS011;5273;51.290;6.918;2023-11-22T06:29:47;13.60;;;7.80;;
10450;SDS011;5273;51.290;6.918;2023-11-22T06:32:14;11.90;;;7.93;;
10450;SDS011;5273;51.290;6.918;2023-11-22T06:34:41;12.93;;;8.50;;
10450;SDS011;5273;51.290;6.918;2023-11-22T06:37:08;14.50;;;8.77;;
10450;SDS011;5273;51.290;6.918;2023-11-22T06:39:35;15.37;;;8.27;;
10450;SDS011;5273;51.290;6.918;2023-11-22T06:42:05;17.00;;;9.37;;
10450;SDS011;5273;51.290;6.918;2023-11-22T06:44:32;15.97;;;8.33;;
10450;SDS011;5273;51.290;6.918;2023-11-22T06:46:59;17.40;;;8.87;;
10450;SDS011;5273;51.290;6.918;2023-11-22T06:49:29;14.50;;;8.73;;
10450;SDS011;5273;51.290;6.918;2023-11-22T06:51:56;14.23;;;8.33;;
10450;SDS011;5273;51.290;6.918;2023-11-22T06:54:24;13.17;;;8.40;;
10450;SDS011;5273;51.290;6.918;2023-11-22T06:56:51;14.53;;;7.80;;
10450;SDS011;5273;51.290;6.918;2023-11-22T06:59:21;17.60;;;8.63;;
10450;SDS011;5273;51.290;6.918;2023-11-22T07:01:49;14.23;;;8.60;;
10450;SDS011;5273;51.290;6.918;2023-11-22T07:04:17;15.37;;;8.40;;
10450;SDS011;5273;51.290;6.918;2023-11-22T07:06:44;14.80;;;8.33;;
10450;SDS011;5273;51.290;6.918;2023-11-22T07:09:11;21.17;;;8.23;;
10450;SDS011;5273;51.290;6.918;2023-11-22T07:11:39;17.47;;;9.00;;
10450;SDS011;5273;51.290;6.918;2023-11-22T07:14:06;14.93;;;9.40;;
10450;SDS011;5273;51.290;6.918;2023-11-22T07:16:35;13.03;;;7.60;;
10450;SDS011;5273;51.290;6.918;2023-11-22T07:19:02;11.10;;;7.77;;
10450;SDS011;5273;51.290;6.918;2023-11-22T07:21:31;8.60;;;6.93;;
10450;SDS011;5273;51.290;6.918;2023-11-22T07:24:02;8.77;;;6.10;;
10450;SDS011;5273;51.290;6.918;2023-11-22T07:26:31;8.00;;;5.47;;
10450;SDS011;5273;51.290;6.918;2023-11-22T07:28:59;6.77;;;5.30;;
10450;SDS011;5273;51.290;6.918;2023-11-22T07:31:26;6.33;;;4.93;;
10450;SDS011;5273;51.290;6.918;2023-11-22T07:33:55;6.60;;;4.63;;
10450;SDS011;5273;51.290;6.918;2023-11-22T07:36:22;5.77;;;4.57;;
10450;SDS011;5273;51.290;6.918;2023-11-22T07:38:49;7.78;;;4.93;;
10450;SDS011;5273;51.290;6.918;2023-11-22T07:41:18;5.65;;;4.25;;
10450;SDS011;5273;51.290;6.918;2023-11-22T07:43:46;7.93;;;4.35;;
10450;SDS011;5273;51.290;6.918;2023-11-22T07:46:13;5.72;;;4.55;;
10450;SDS011;5273;51.290;6.918;2023-11-22T07:48:47;7.20;;;4.70;;
10450;SDS011;5273;51.290;6.918;2023-11-22T07:51:16;4.75;;;3.97;;
10450;SDS011;5273;51.290;6.918;2023-11-22T07:53:43;7.03;;;4.45;;
10450;SDS011;5273;51.290;6.918;2023-11-22T07:56:10;7.40;;;4.30;;
10450;SDS011;5273;51.290;6.918;2023-11-22T07:58:39;5.38;;;4.10;;
10450;SDS011;5273;51.290;6.918;2023-11-22T08:01:06;5.80;;;4.13;;
10450;SDS011;5273;51.290;6.918;2023-11-22T08:03:38;7.45;;;3.97;;
10450;SDS011;5273;51.290;6.918;2023-11-22T08:06:09;4.43;;;3.75;;
10450;SDS011;5273;51.290;6.918;2023-11-22T08:08:37;5.40;;;4.63;;
10450;SDS011;5273;51.290;6.918;2023-11-22T08:11:07;5.80;;;4.22;;
10450;SDS011;5273;51.290;6.918;2023-11-22T08:13:40;5.20;;;4.20;;
10450;SDS011;5273;51.290;6.918;2023-11-22T08:16:08;4.28;;;3.88;;
10450;SDS011;5273;51.290;6.918;2023-11-22T08:18:35;6.93;;;4.13;;
10450;SDS011;5273;51.290;6.918;2023-11-22T08:21:02;5.82;;;3.90;;
10450;SDS011;5273;51.290;6.918;2023-11-22T08:23:29;4.88;;;3.70;;
10450;SDS011;5273;51.290;6.918;2023-11-22T08:26:00;5.00;;;4.50;;
10450;SDS011;5273;51.290;6.918;2023-11-22T08:28:30;6.07;;;4.18;;
10450;SDS011;5273;51.290;6.918;2023-11-22T08:30:59;6.55;;;4.53;;
10450;SDS011;5273;51.290;6.918;2023-11-22T08:33:28;6.03;;;4.47;;
10450;SDS011;5273;51.290;6.918;2023-11-22T08:35:56;7.25;;;4.78;;
10450;SDS011;5273;51.290;6.918;2023-11-22T08:38:26;8.27;;;4.45;;
10450;SDS011;5273;51.290;6.918;2023-11-22T08:40:55;6.43;;;4.22;;
10450;SDS011;5273;51.290;6.918;2023-11-22T08:43:26;6.63;;;4.20;;
10450;SDS011;5273;51.290;6.918;2023-11-22T08:45:53;4.28;;;3.88;;
10450;SDS011;5273;51.290;6.918;2023-11-22T08:48:20;7.00;;;4.50;;
10450;SDS011;5273;51.290;6.918;2023-11-22T08:50:48;6.38;;;4.32;;
10450;SDS011;5273;51.290;6.918;2023-11-22T08:53:15;4.95;;;3.90;;
10450;SDS011;5273;51.290;6.918;2023-11-22T08:55:44;4.70;;;3.90;;
10450;SDS011;5273;51.290;6.918;2023-11-22T08:58:14;5.22;;;3.90;;
10450;SDS011;5273;51.290;6.918;2023-11-22T09:00:42;4.55;;;4.15;;
10450;SDS011;5273;51.290;6.918;2023-11-22T09:03:10;5.75;;;4.40;;
10450;SDS011;5273;51.290;6.918;2023-11-22T09:05:38;3.97;;;3.50;;
10450;SDS011;5273;51.290;6.918;2023-11-22T09:08:05;4.25;;;3.85;;
10450;SDS011;5273;51.290;6.918;2023-11-22T09:10:32;4.00;;;3.17;;
10450;SDS011;5273;51.290;6.918;2023-11-22T09:13:00;4.88;;;3.60;;
10450;SDS011;5273;51.290;6.918;2023-11-22T09:15:31;4.43;;;3.42;;
10450;SDS011;5273;51.290;6.918;2023-11-22T09:18:00;3.78;;;3.38;;
10450;SDS011;5273;51.290;6.918;2023-11-22T09:20:27;3.28;;;2.97;;
10450;SDS011;5273;51.290;6.918;2023-11-22T09:22:57;2.90;;;2.60;;
10450;SDS011;5273;51.290;6.918;2023-11-22T09:25:24;2.63;;;2.42;;
10450;SDS011;5273;51.290;6.918;2023-11-22T09:27:53;3.00;;;2.40;;
10450;SDS011;5273;51.290;6.918;2023-11-22T09:30:24;2.80;;;2.25;;
10450;SDS011;5273;51.290;6.918;2023-11-22T09:33:02;3.20;;;2.25;;
10450;SDS011;5273;51.290;6.918;2023-11-22T09:35:30;2.28;;;2.13;;
10450;SDS011;5273;51.290;6.918;2023-11-22T09:37:58;2.05;;;1.92;;
10450;SDS011;5273;51.290;6.918;2023-11-22T09:40:25;2.45;;;2.25;;
10450;SDS011;5273;51.290;6.918;2023-11-22T09:42:54;2.45;;;1.90;;
10450;SDS011;5273;51.290;6.918;2023-11-22T09:45:25;1.98;;;1.88;;
10450;SDS011;5273;51.290;6.918;2023-11-22T09:47:52;2.95;;;1.70;;
10450;SDS011;5273;51.290;6.918;2023-11-22T09:50:23;2.33;;;1.95;;
10450;SDS011;5273;51.290;6.918;2023-11-22T09:52:56;1.50;;;1.40;;
10450;SDS011;5273;51.290;6.918;2023-11-22T09:55:31;2.13;;;1.92;;
10450;SDS011;5273;51.290;6.918;2023-11-22T09:57:58;2.53;;;2.08;;
10450;SDS011;5273;51.290;6.918;2023-11-22T10:00:27;1.80;;;1.70;;
10450;SDS011;5273;51.290;6.918;2023-11-22T10:02:55;2.97;;;2.20;;
10450;SDS011;5273;51.290;6.918;2023-11-22T10:05:24;2.38;;;1.90;;
10450;SDS011;5273;51.290;6.918;2023-11-22T10:07:53;2.25;;;1.98;;
10450;SDS011;5273;51.290;6.918;2023-11-22T10:10:21;2.15;;;1.90;;
10450;SDS011;5273;51.290;6.918;2023-11-22T10:12:52;2.47;;;2.28;;
10450;SDS011;5273;51.290;6.918;2023-11-22T10:15:22;3.05;;;2.22;;
10450;SDS011;5273;51.290;6.918;2023-11-22T10:17:53;1.83;;;1.52;;
10450;SDS011;5273;51.290;6.918;2023-11-22T10:20:28;2.45;;;1.80;;
10450;SDS011;5273;51.290;6.918;2023-11-22T10:23:03;2.20;;;2.00;;
10450;SDS011;5273;51.290;6.918;2023-11-22T10:25:34;2.55;;;2.20;;
10450;SDS011;5273;51.290;6.918;2023-11-22T10:28:01;2.15;;;1.70;;
10450;SDS011;5273;51.290;6.918;2023-11-22T10:30:28;3.35;;;1.90;;
10450;SDS011;5273;51.290;6.918;2023-11-22T10:32:55;3.33;;;2.08;;
10450;SDS011;5273;51.290;6.918;2023-11-22T10:35:24;2.40;;;2.05;;
10450;SDS011;5273;51.290;6.918;2023-11-22T10:37:52;1.60;;;1.50;;
10450;SDS011;5273;51.290;6.918;2023-11-22T10:40:19;3.30;;;2.17;;
10450;SDS011;5273;51.290;6.918;2023-11-22T10:42:49;2.35;;;1.88;;
10450;SDS011;5273;51.290;6.918;2023-11-22T10:45:20;3.97;;;2.38;;
10450;SDS011;5273;51.290;6.918;2023-11-22T10:47:52;4.22;;;3.25;;
10450;SDS011;5273;51.290;6.918;2023-11-22T10:50:20;5.20;;;3.22;;
10450;SDS011;5273;51.290;6.918;2023-11-22T10:52:53;3.40;;;3.10;;
10450;SDS011;5273;51.290;6.918;2023-11-22T10:55:26;5.03;;;3.40;;
10450;SDS011;5273;51.290;6.918;2023-11-22T10:57:56;3.95;;;3.10;;
10450;SDS011;5273;51.290;6.918;2023-11-22T11:00:31;4.70;;;3.53;;
10450;SDS011;5273;51.290;6.918;2023-11-22T11:03:01;3.60;;;3.13;;
10450;SDS011;5273;51.290;6.918;2023-11-22T11:05:34;3.97;;;3.17;;
10450;SDS011;5273;51.290;6.918;2023-11-22T11:08:11;3.83;;;2.92;;
10450;SDS011;5273;51.290;6.918;2023-11-22T11:10:39;4.93;;;2.85;;
10450;SDS011;5273;51.290;6.918;2023-11-22T11:13:08;9.60;;;3.13;;
10450;SDS011;5273;51.290;6.918;2023-11-22T11:15:35;5.82;;;3.03;;
10450;SDS011;5273;51.290;6.918;2023-11-22T11:18:03;5.55;;;3.13;;
10450;SDS011;5273;51.290;6.918;2023-11-22T11:20:32;4.65;;;2.80;;
10450;SDS011;5273;51.290;6.918;2023-11-22T11:23:01;3.58;;;2.78;;
10450;SDS011;5273;51.290;6.918;2023-11-22T11:25:31;3.33;;;2.65;;
10450;SDS011;5273;51.290;6.918;2023-11-22T11:27:58;2.83;;;2.55;;
10450;SDS011;5273;51.290;6.918;2023-11-22T11:30:42;4.00;;;2.95;;
10450;SDS011;5273;51.290;6.918;2023-11-22T11:33:13;4.07;;;3.25;;
10450;SDS011;5273;51.290;6.918;2023-11-22T11:35:42;3.75;;;3.00;;
10450;SDS011;5273;51.290;6.918;2023-11-22T11:38:12;4.03;;;3.13;;
10450;SDS011;5273;51.290;6.918;2023-11-22T11:40:41;3.90;;;3.00;;
10450;SDS011;5273;51.290;6.918;2023-11-22T11:43:10;4.13;;;3.00;;
10450;SDS011;5273;51.290;6.918;2023-11-22T11:45:38;3.53;;;2.65;;
10450;SDS011;5273;51.290;6.918;2023-11-22T11:48:13;4.68;;;3.22;;
10450;SDS011;5273;51.290;6.918;2023-11-22T11:50:41;3.20;;;2.60;;
10450;SDS011;5273;51.290;6.918;2023-11-22T11:53:08;5.05;;;3.03;;
10450;SDS011;5273;51.290;6.918;2023-11-22T11:55:36;3.80;;;3.00;;
10450;SDS011;5273;51.290;6.918;2023-11-22T11:58:06;4.38;;;2.60;;
10450;SDS011;5273;51.290;6.918;2023-11-22T12:00:34;4.65;;;2.88;;
10450;SDS011;5273;51.290;6.918;2023-11-22T12:03:05;6.40;;;3.03;;
10450;SDS011;5273;51.290;6.918;2023-11-22T12:05:35;3.30;;;2.28;;
10450;SDS011;5273;51.290;6.918;2023-11-22T12:08:02;2.97;;;2.47;;
10450;SDS011;5273;51.290;6.918;2023-11-22T12:10:29;3.05;;;2.65;;
10450;SDS011;5273;51.290;6.918;2023-11-22T12:12:56;2.80;;;2.40;;
10450;SDS011;5273;51.290;6.918;2023-11-22T12:15:25;3.50;;;2.30;;
10450;SDS011;5273;51.290;6.918;2023-11-22T12:17:56;2.67;;;2.40;;
10450;SDS011;5273;51.290;6.918;2023-11-22T12:20:23;5.22;;;2.78;;
10450;SDS011;5273;51.290;6.918;2023-11-22T12:22:51;3.33;;;2.70;;
10450;SDS011;5273;51.290;6.918;2023-11-22T12:25:19;4.07;;;2.60;;
10450;SDS011;5273;51.290;6.918;2023-11-22T12:27:46;5.30;;;2.78;;
10450;SDS011;5273;51.290;6.918;2023-11-22T12:30:33;4.07;;;3.00;;
10450;SDS011;5273;51.290;6.918;2023-11-22T12:33:01;2.42;;;2.20;;
10450;SDS011;5273;51.290;6.918;2023-11-22T12:35:29;3.53;;;2.13;;
10450;SDS011;5273;51.290;6.918;2023-11-22T12:37:58;3.20;;;2.03;;
10450;SDS011;5273;51.290;6.918;2023-11-22T12:40:27;3.63;;;2.20;;
10450;SDS011;5273;51.290;6.918;2023-11-22T12:42:56;3.67;;;3.10;;
10450;SDS011;5273;51.290;6.918;2023-11-22T12:45:24;4.40;;;2.70;;
10450;SDS011;5273;51.290;6.918;2023-11-22T12:47:56;3.17;;;2.87;;
10450;SDS011;5273;51.290;6.918;2023-11-22T12:50:34;1.67;;;1.50;;
10450;SDS011;5273;51.290;6.918;2023-11-22T12:53:10;1.60;;;1.50;;
10450;SDS011;5273;51.290;6.918;2023-11-22T12:55:44;2.33;;;1.37;;
10450;SDS011;5273;51.290;6.918;2023-11-22T12:58:13;1.50;;;1.30;;
10450;SDS011;5273;51.290;6.918;2023-11-22T13:00:44;2.87;;;1.87;;
10450;SDS011;5273;51.290;6.918;2023-11-22T13:03:13;2.93;;;2.10;;
10450;SDS011;5273;51.290;6.918;2023-11-22T13:05:41;2.07;;;1.80;;
10450;SDS011;5273;51.290;6.918;2023-11-22T13:08:09;2.57;;;2.00;;
10450;SDS011;5273;51.290;6.918;2023-11-22T13:10:38;1.80;;;1.70;;
10450;SDS011;5273;51.290;6.918;2023-11-22T13:13:05;4.77;;;2.30;;
10450;SDS011;5273;51.290;6.918;2023-11-22T13:15:35;4.30;;;2.40;;
10450;SDS011;5273;51.290;6.918;2023-11-22T13:18:02;2.77;;;2.17;;
10450;SDS011;5273;51.290;6.918;2023-11-22T13:20:32;3.90;;;2.03;;
10450;SDS011;5273;51.290;6.918;2023-11-22T13:23:00;1.90;;;1.70;;
10450;SDS011;5273;51.290;6.918;2023-11-22T13:25:27;2.53;;;2.20;;
10450;SDS011;5273;51.290;6.918;2023-11-22T13:27:55;2.90;;;1.90;;
10450;SDS011;5273;51.290;6.918;2023-11-22T13:30:24;2.33;;;2.00;;
10450;SDS011;5273;51.290;6.918;2023-11-22T13:32:51;2.30;;;2.10;;
10450;SDS011;5273;51.290;6.918;2023-11-22T13:35:21;1.70;;;1.60;;
10450;SDS011;5273;51.290;6.918;2023-11-22T13:37:50;2.80;;;2.10;;
10450;SDS011;5273;51.290;6.918;2023-11-22T13:40:17;2.27;;;2.07;;
10450;SDS011;5273;51.290;6.918;2023-11-22T13:42:47;3.10;;;2.00;;
10450;SDS011;5273;51.290;6.918;2023-11-22T13:45:16;2.23;;;2.03;;
10450;SDS011;5273;51.290;6.918;2023-11-22T13:47:43;2.73;;;2.30;;
10450;SDS011;5273;51.290;6.918;2023-11-22T13:50:12;3.17;;;2.30;;
10450;SDS011;5273;51.290;6.918;2023-11-22T13:52:40;2.67;;;2.00;;
10450;SDS011;5273;51.290;6.918;2023-11-22T13:55:09;3.97;;;2.10;;
10450;SDS011;5273;51.290;6.918;2023-11-22T13:57:37;2.63;;;2.00;;
10450;SDS011;5273;51.290;6.918;2023-11-22T14:00:10;2.60;;;2.10;;
10450;SDS011;5273;51.290;6.918;2023-11-22T14:02:43;2.93;;;2.03;;
10450;SDS011;5273;51.290;6.918;2023-11-22T14:05:10;4.13;;;1.80;;
10450;SDS011;5273;51.290;6.918;2023-11-22T14:07:37;3.43;;;2.90;;
10450;SDS011;5273;51.290;6.918;2023-11-22T14:10:05;3.80;;;2.75;;
10450;SDS011;5273;51.290;6.918;2023-11-22T14:12:35;8.93;;;3.03;;
10450;SDS011;5273;51.290;6.918;2023-11-22T14:15:04;2.93;;;2.30;;
10450;SDS011;5273;51.290;6.918;2023-11-22T14:17:31;4.97;;;2.93;;
10450;SDS011;5273;51.290;6.918;2023-11-22T14:19:58;3.65;;;2.63;;
10450;SDS011;5273;51.290;6.918;2023-11-22T14:22:25;7.40;;;3.33;;
10450;SDS011;5273;51.290;6.918;2023-11-22T14:24:52;7.50;;;3.30;;
10450;SDS011;5273;51.290;6.918;2023-11-22T14:27:19;4.10;;;3.07;;
10450;SDS011;5273;51.290;6.918;2023-11-22T14:29:50;4.27;;;3.10;;
10450;SDS011;5273;51.290;6.918;2023-11-22T14:32:19;6.23;;;3.30;;
10450;SDS011;5273;51.290;6.918;2023-11-22T14:34:55;6.27;;;3.50;;
10450;SDS011;5273;51.290;6.918;2023-11-22T14:37:23;3.90;;;3.30;;
10450;SDS011;5273;51.290;6.918;2023-11-22T14:39:52;4.40;;;3.33;;
10450;SDS011;5273;51.290;6.918;2023-11-22T14:42:22;5.43;;;3.63;;
10450;SDS011;5273;51.290;6.918;2023-11-22T14:44:51;6.37;;;3.27;;
10450;SDS011;5273;51.290;6.918;2023-11-22T14:47:18;6.30;;;3.97;;
10450;SDS011;5273;51.290;6.918;2023-11-22T14:49:49;4.33;;;3.20;;
10450;SDS011;5273;51.290;6.918;2023-11-22T14:52:16;4.43;;;3.40;;
10450;SDS011;5273;51.290;6.918;2023-11-22T14:54:44;6.67;;;4.70;;
10450;SDS011;5273;51.290;6.918;2023-11-22T14:57:15;5.90;;;4.37;;
10450;SDS011;5273;51.290;6.918;2023-11-22T14:59:43;7.83;;;4.00;;
10450;SDS011;5273;51.290;6.918;2023-11-22T15:02:13;7.77;;;3.70;;